Latest Weather Observations for Casey*

IDT60801

Issued at 7:01 am EST Monday 25 May 2015 (issued every 30 minutes, with the page automatically refreshed every 10 minutes)

About weather observations | Map of weather stations | Latest weather observations for ANT | Other Formats
Station Details ID: 300017 Name: CASEY Lat: -66.28 Lon: 110.52 Height: 40.0 m
Data from the previous 72 hours. | See also: Recent months at Casey*
Date/Time
EST
Temp
°C
App
Temp
°C
Dew
Point
Rel
Hum
%
Delta-T
°C
Wind Press
QNH
hPa
Press
MSL
hPa
Rain
since 9 am
mm
Dir
 
Spd
km/h
Gust
km/h
Spd
kts
Gust
kts
25/07:00am -1.4 -13.9 -5.6 73 - ENE 52 57 28 31 975.0 975.5 -
25/06:30am -1.8 -11.5 -5.3 77 - NE 37 50 20 27 975.4 - -
25/06:00am -2.0 -11.6 -5.0 80 - NE 37 44 20 24 975.6 - -
25/05:30am -1.8 -12.6 -4.8 80 - NE 43 50 23 27 975.6 - -
25/05:00am -1.9 -10.6 -5.0 79 - NNE 32 39 17 21 975.5 - -
25/04:30am -2.2 -9.8 -5.2 80 - NNE 26 39 14 21 975.7 - -
25/04:07am -2.0 -9.8 -3.6 89 - NNE 28 46 15 25 975.5 - -
25/04:00am -2.0 -9.4 -3.4 90 - N 26 35 14 19 975.3 975.8 -
25/03:30am -2.8 -9.8 -3.8 93 - N 24 30 13 16 975.0 - -
25/03:00am -2.8 -9.9 -4.1 91 - N 24 26 13 14 974.7 - -
25/02:30am -2.6 -12.1 -3.7 92 - NNE 37 43 20 23 974.5 - -
25/02:00am -2.7 -13.0 -4.0 91 - NNE 41 52 22 28 974.0 - -
25/01:44am -2.6 -12.1 -3.7 92 - NNE 37 56 20 30 973.6 - -
25/01:30am -2.6 -11.1 -3.7 92 - NNE 32 44 17 24 973.6 - -
25/01:13am -2.2 -11.6 -3.0 94 - N 37 46 20 25 973.3 - -
25/01:00am -4.0 -10.8 -4.8 94 - NNW 22 30 12 16 973.5 974.0 -
25/12:30am -4.4 -11.6 -5.2 94 - N 24 35 13 19 973.2 - -
25/12:00am -5.1 -13.1 -5.9 94 - N 28 39 15 21 972.7 - -
 
Date/Time
EST
Temp
°C
App
Temp
°C
Dew
Point
Rel
Hum
%
Delta-T
°C
Wind Press
QNH
hPa
Press
MSL
hPa
Rain
since 9 am
mm
Dir
 
Spd
km/h
Gust
km/h
Spd
kts
Gust
kts
24/11:30pm -5.2 -13.2 -6.2 93 - N 28 39 15 21 972.2 - -
24/11:15pm -5.1 -13.1 -6.1 93 - N 28 46 15 25 971.7 - -
24/11:00pm -5.0 -14.7 -6.0 93 - N 37 46 20 25 971.5 - -
24/10:30pm -4.8 -15.7 -5.8 93 - N 43 52 23 28 971.0 - -
24/10:00pm -4.5 -15.0 -5.6 92 - NNE 41 54 22 29 970.6 971.1 -
24/09:30pm -4.0 -13.6 -5.1 92 - NNE 37 44 20 24 970.3 - -
24/09:00pm -3.6 -14.0 -5.0 90 - NNE 41 50 22 27 970.0 - -
24/08:30pm -3.5 -11.8 -5.2 88 - NNE 30 35 16 19 969.6 - -
24/08:00pm -2.8 -12.8 -5.1 84 - NNE 39 52 21 28 969.0 - -
24/07:30pm -2.4 -13.8 -5.4 80 - NE 46 56 25 30 968.4 - -
24/07:00pm -2.5 -14.7 -5.6 79 - ENE 50 59 27 32 968.2 968.7 -
24/06:30pm -2.7 -14.1 -5.8 79 - NE 46 61 25 33 968.0 - -
24/06:16pm -3.0 -11.1 -6.3 78 - NE 28 46 15 25 968.4 - -
24/06:06pm -2.5 -11.8 -5.5 80 - NE 35 41 19 22 968.1 - -
24/06:00pm -3.3 -8.8 -5.3 86 - NNE 15 22 8 12 968.4 - -
24/05:30pm -3.7 -10.5 -5.1 90 - N 22 30 12 16 968.3 - -
24/05:00pm -3.5 -11.9 -5.8 84 - NE 30 44 16 24 968.2 - -
24/04:46pm -3.2 -11.2 -5.8 82 - ENE 28 46 15 25 968.5 - -
24/04:35pm -2.2 -10.8 -4.4 85 - NE 32 37 17 20 968.3 - -
24/04:30pm -3.0 -13.8 -5.2 85 - E 43 63 23 34 968.1 - -
24/04:00pm -3.1 -15.1 -3.9 94 - E 50 69 27 37 968.1 968.6 -
24/03:47pm -4.4 -15.8 -5.5 92 - E 46 67 25 36 968.6 - -
24/03:42pm -4.6 -16.0 -5.7 92 - E 46 56 25 30 969.5 - -
24/03:30pm -4.7 -11.6 -5.9 91 - S 22 32 12 17 970.0 - -
24/03:18pm -4.2 -13.2 -5.9 88 - SSW 33 43 18 23 970.1 - -
24/03:13pm -4.5 -15.4 -6.3 87 - S 43 48 23 26 970.0 - -
24/03:00pm -4.2 -13.2 -6.2 86 - SE 33 46 18 25 970.0 - -
24/02:42pm -4.3 -13.0 -5.5 91 - SSE 32 50 17 27 970.5 - -
24/02:30pm -4.4 -13.1 -5.6 91 - SSE 32 37 17 20 971.0 - -
24/02:15pm -3.7 -12.4 -5.2 89 - ESE 32 41 17 22 971.3 - -
24/02:00pm -3.2 -9.6 -4.7 89 - SE 20 20 11 11 971.6 - -
24/01:30pm -2.5 -9.1 -7.2 70 - SSE 20 26 11 14 972.0 - -
24/01:00pm -3.8 -9.7 -6.1 84 - SSW 17 19 9 10 972.8 973.3 -
24/12:30pm -4.4 -11.8 -7.3 80 - S 24 28 13 15 973.3 - -
24/12:00pm -4.3 -12.1 -7.1 81 - SSW 26 30 14 16 973.7 - -
24/11:30am -3.5 -9.5 -6.8 78 - S 17 19 9 10 974.3 - -
24/11:00am -0.6 -6.5 -5.8 68 - SSE 17 20 9 11 974.5 - -
24/10:30am -2.0 -6.7 -5.3 78 - ENE 11 20 6 11 975.1 - -
24/10:27am -1.9 -10.2 -5.0 79 - E 30 43 16 23 975.2 - -
24/10:00am -1.8 -16.0 -4.8 80 - E 61 67 33 36 973.8 974.3 -
24/09:30am -2.0 -16.9 -4.5 83 - E 65 72 35 39 973.9 - -
24/09:00am -2.3 -17.6 -4.6 84 - E 67 74 36 40 974.4 - -
24/08:30am -2.3 -17.6 -4.3 86 - E 67 80 36 43 974.7 - -
24/08:00am -2.8 -17.7 -4.7 87 - ENE 65 76 35 41 975.8 - -
24/07:30am -2.4 -19.0 -4.0 89 - ENE 74 89 40 48 975.6 - -
24/07:09am -2.6 -18.8 -4.2 89 - ENE 72 80 39 43 975.8 - -
24/07:01am -2.7 -15.5 -4.1 90 - NE 54 80 29 43 976.5 - -
24/07:00am -2.6 -15.0 -4.2 89 - NE 52 69 28 37 976.6 977.1 -
24/06:55am -2.6 -14.6 -4.2 89 - NE 50 57 27 31 976.7 - -
24/06:30am -3.0 -18.6 -4.3 91 - ENE 69 80 37 43 976.5 - -
24/06:00am -3.2 -18.8 -4.3 92 - ENE 69 80 37 43 976.4 - -
24/05:30am -3.3 -19.0 -4.4 92 - ENE 69 83 37 45 976.1 - -
24/05:00am -3.2 -19.0 -4.3 92 - NE 70 87 38 47 976.0 - -
24/04:30am -3.2 -20.9 -4.2 93 - NE 80 96 43 52 975.4 - -
24/04:02am -3.9 -23.0 -4.7 94 - NE 87 106 47 57 974.9 - -
24/04:00am -3.9 -23.4 -4.7 94 - NE 89 106 48 57 974.6 975.1 -
24/03:30am -4.0 -24.3 -5.0 93 - NE 93 107 50 58 974.2 - -
24/03:00am -3.8 -24.6 -4.6 94 - NE 96 109 52 59 973.6 - -
24/02:32am -4.0 -23.9 -5.0 93 - NE 91 109 49 59 973.0 - -
24/02:30am -4.2 -24.1 -5.2 93 - NE 91 107 49 58 973.1 - -
24/02:05am -4.1 -24.8 -5.1 93 - ENE 95 117 51 63 972.7 - -
24/02:00am -4.3 -25.0 -5.3 93 - ENE 95 109 51 59 972.9 - -
24/01:30am -4.3 -25.0 -5.3 93 - ENE 95 113 51 61 972.3 - -
24/01:17am -4.4 -26.0 -5.4 93 - ENE 100 119 54 64 971.7 - -
24/01:00am -4.5 -26.5 -5.5 93 - ENE 102 117 55 63 971.5 972.0 -
24/12:31am -4.8 -27.8 -5.6 94 - ENE 107 126 58 68 970.8 - -
24/12:30am -4.9 -27.9 -5.7 94 - ENE 107 124 58 67 970.6 - -
24/12:03am -5.1 -29.3 -6.1 93 - ENE 113 132 61 71 969.6 - -
24/12:00am -5.8 -29.7 -6.9 92 - ENE 111 126 60 68 970.1 - -
 
Date/Time
EST
Temp
°C
App
Temp
°C
Dew
Point
Rel
Hum
%
Delta-T
°C
Wind Press
QNH
hPa
Press
MSL
hPa
Rain
since 9 am
mm
Dir
 
Spd
km/h
Gust
km/h
Spd
kts
Gust
kts
23/11:41pm -5.7 -29.2 -6.6 93 - ENE 109 128 59 69 970.3 - -
23/11:30pm -5.6 -29.5 -6.7 92 - ENE 111 128 60 69 969.7 - -
23/11:00pm -5.4 -29.2 -6.5 92 - ENE 111 130 60 70 969.4 - -
23/10:46pm -5.4 -29.2 -6.5 92 - ENE 111 132 60 71 969.2 - -
23/10:30pm -5.4 -28.9 -6.5 92 - ENE 109 124 59 67 969.3 - -
23/10:00pm -5.7 -30.7 -6.8 92 - ENE 117 135 63 73 969.5 970.0 -
23/09:30pm -6.1 -29.6 -7.2 92 - ENE 109 133 59 72 969.8 - -
23/09:00pm -5.9 -31.5 -7.0 92 - ENE 120 145 65 78 968.6 - -
23/08:30pm -5.5 -31.8 -6.4 93 - ENE 124 146 67 79 967.9 - -
23/08:00pm -5.5 -32.6 -6.4 93 - ENE 128 148 69 80 968.4 - -
23/07:34pm -5.2 -29.8 -6.2 93 - ENE 115 141 62 76 969.4 - -
23/07:30pm -5.3 -29.5 -6.4 92 - ENE 113 130 61 70 969.9 - -
23/07:06pm -5.1 -29.3 -6.1 93 - ENE 113 132 61 71 971.4 - -
23/07:00pm -5.0 -29.9 -6.0 93 - ENE 117 132 63 71 971.0 971.5 -
23/06:54pm -5.3 -30.3 -6.2 93 - ENE 117 126 63 68 970.7 - -
23/06:30pm -6.0 -27.0 -6.9 93 - ENE 96 115 52 62 972.1 - -
23/06:03pm -6.2 -26.0 -7.4 91 - ENE 89 109 48 59 973.2 - -
23/06:00pm -5.7 -25.4 -6.8 92 - ENE 89 106 48 57 973.3 - -
23/05:31pm -4.7 -23.5 -5.7 93 - ENE 85 107 46 58 973.9 - -
23/05:30pm -4.7 -23.2 -5.7 93 - ENE 83 100 45 54 973.9 - -
23/05:00pm -3.8 -22.9 -4.8 93 - ENE 87 106 47 57 974.4 - -
23/04:30pm -4.1 -22.9 -5.2 92 - ENE 85 106 46 57 975.1 - -
23/04:26pm -3.6 -22.3 -4.6 93 - ENE 85 106 46 57 975.0 - -
23/04:00pm -3.5 -22.2 -4.5 93 - ENE 85 102 46 55 975.5 976.0 -
23/03:52pm -3.9 -22.3 -4.9 93 - ENE 83 102 45 55 975.9 - -
23/03:30pm -3.5 -20.5 -4.5 93 - ENE 76 89 41 48 976.0 - -
23/03:00pm -3.4 -18.3 -4.7 91 - ENE 65 80 35 43 977.4 - -
23/02:47pm -3.4 -15.9 -4.7 91 - E 52 76 28 41 978.0 - -
23/02:30pm -3.5 -16.7 -4.8 91 - ENE 56 72 30 39 978.7 - -
23/02:00pm -3.5 -15.6 -4.9 90 - ENE 50 63 27 34 979.7 - -
23/01:30pm -4.1 -18.3 -5.3 91 - ENE 61 69 33 37 979.3 - -
23/01:00pm -4.1 -17.6 -5.2 92 - ENE 57 69 31 37 979.6 980.2 -
23/12:30pm -4.6 -20.4 -5.6 93 - ENE 69 80 37 43 979.3 - -
23/12:00pm -5.1 -20.9 -6.2 92 - ENE 69 78 37 42 979.4 - -
23/11:30am -5.3 -21.7 -6.4 92 - ENE 72 83 39 45 979.4 - -
23/11:00am -5.6 -22.4 -6.7 92 - ENE 74 83 40 45 979.1 - -
23/10:30am -6.0 -24.0 -7.1 92 - ENE 80 91 43 49 978.7 - -
23/10:07am -6.3 -24.3 -7.4 92 - ENE 80 98 43 53 978.9 - -
23/10:00am -6.3 -24.9 -7.4 92 - ENE 83 98 45 53 978.6 979.2 -
23/09:30am -6.3 -24.7 -7.4 92 - ENE 82 91 44 49 979.2 - -
23/09:06am -5.9 -23.1 -7.0 92 - ENE 76 95 41 51 979.0 - -
23/09:00am -6.2 -24.2 -7.3 92 - ENE 80 96 43 52 979.0 - -
23/08:48am -6.3 -24.0 -7.4 92 - ENE 78 96 42 52 978.6 - -
23/08:30am -6.4 -24.1 -7.5 92 - ENE 78 91 42 49 978.5 - -
23/08:00am -6.4 -24.8 -7.5 92 - ENE 82 100 44 54 978.0 - -
23/07:42am -6.4 -24.1 -7.5 92 - ENE 78 96 42 52 978.1 - -
23/07:30am -6.7 -25.2 -7.8 92 - ENE 82 96 44 52 978.0 - -
23/07:02am -6.5 -24.2 -7.6 92 - ENE 78 96 42 52 978.1 - -
23/07:00am -6.5 -24.6 -7.6 92 - ENE 80 96 43 52 978.1 978.6 -
23/06:30am -6.4 -25.0 -7.5 92 - ENE 83 102 45 55 977.4 - -
23/06:00am -6.9 -25.6 -8.0 92 - ENE 83 104 45 56 977.1 - -
23/05:30am -6.8 -26.6 -8.2 90 - ENE 89 107 48 58 976.5 - -
23/05:00am -6.2 -23.9 -7.7 89 - ENE 78 104 42 56 976.8 - -
23/04:49am -6.4 -22.4 -7.9 89 - ENE 69 91 37 49 978.4 - -
23/04:31am -6.2 -17.4 -7.7 89 - ENE 44 67 24 36 980.0 - -
23/04:30am -6.5 -16.8 -7.9 90 - ENE 39 56 21 30 980.0 - -
23/04:00am -6.3 -15.3 -8.5 84 - N 32 50 17 27 980.0 980.6 -
23/03:43am -7.2 -15.4 -8.3 92 - NW 28 54 15 29 980.1 - -
23/03:30am -10.4 -16.8 -11.9 89 - WNW 17 24 9 13 981.0 - -
23/03:24am -10.3 -18.8 -11.8 89 - N 28 44 15 24 980.7 - -
23/03:00am -10.6 -16.7 -12.1 89 - W 15 24 8 13 981.0 - -
23/02:30am -11.8 -17.5 -12.8 92 - W 13 20 7 11 981.0 - -
23/02:00am -14.4 -21.1 -16.1 87 - SSW 17 20 9 11 981.3 - -
23/01:30am -15.1 -22.2 -17.0 85 - S 19 24 10 13 981.6 - -
23/01:00am -15.0 -22.3 -16.9 85 - S 20 24 11 13 982.0 982.6 -
23/12:30am -15.7 -23.4 -17.8 84 - S 22 24 12 13 982.5 - -
23/12:00am -16.1 -23.8 -18.2 84 - S 22 24 12 13 982.9 - -
 
Date/Time
EST
Temp
°C
App
Temp
°C
Dew
Point
Rel
Hum
%
Delta-T
°C
Wind Press
QNH
hPa
Press
MSL
hPa
Rain
since 9 am
mm
Dir
 
Spd
km/h
Gust
km/h
Spd
kts
Gust
kts
22/11:30pm -16.1 -24.2 -18.2 84 - S 24 28 13 15 983.1 - -
22/11:00pm -16.9 -25.0 -18.9 84 - S 24 26 13 14 983.3 - -
22/10:30pm -17.0 -23.0 -19.0 84 - S 13 15 7 8 984.0 - -
22/10:00pm -17.0 -21.3 -19.0 84 - S 4 9 2 5 984.5 985.0 -
22/09:30pm -17.2 -21.9 -19.2 84 - NE 6 7 3 4 984.9 - -
22/09:00pm -17.2 -22.8 -19.2 84 - NE 11 13 6 7 985.0 - -
22/08:30pm -17.1 -22.4 -19.3 83 - NNE 9 17 5 9 985.1 - -
22/08:00pm -16.8 -21.7 -18.8 84 - SW 7 9 4 5 985.3 - -
22/07:30pm -16.8 -22.1 -18.8 84 - WSW 9 11 5 6 985.3 - -
22/07:00pm -16.6 -21.8 -18.7 84 - SSW 9 13 5 7 985.2 985.7 -
22/06:30pm -16.8 -22.8 -19.0 83 - S 13 13 7 7 985.2 - -
22/06:00pm -16.8 -23.2 -19.1 82 - S 15 17 8 9 985.4 - -
22/05:30pm -17.0 -23.4 -19.2 83 - SE 15 19 8 10 985.8 - -
22/05:00pm -17.4 -24.2 -19.6 83 - ESE 17 17 9 9 986.2 - -
22/04:30pm -17.4 -23.4 -19.4 84 - SE 13 15 7 8 986.4 - -
22/04:00pm -18.0 -22.9 -20.2 83 - SE 7 11 4 6 986.6 987.1 -
22/03:30pm -17.9 -22.8 -19.9 84 - SSE 7 9 4 5 986.7 - -
22/03:00pm -18.0 -22.9 -19.9 85 - S 7 9 4 5 987.1 - -
22/02:30pm -18.1 -22.8 -20.1 84 - SSW 6 9 3 5 986.9 - -
22/02:00pm -17.9 -21.9 -19.9 84 - N 2 7 1 4 986.8 - -
22/01:30pm -17.9 -23.2 -19.8 85 - NNW 9 13 5 7 987.2 - -
22/01:00pm -17.8 -23.8 -19.7 85 - NNW 13 20 7 11 987.6 988.1 -
22/12:30pm -17.7 -22.1 -20.2 81 - N 4 9 2 5 987.8 - -
22/12:00pm -17.6 -22.9 -20.2 80 - SSE 9 13 5 7 987.3 - -
22/11:30am -17.1 -24.5 -19.4 82 - SW 20 24 11 13 987.3 - -
22/11:00am -17.6 -24.8 -20.2 80 - SSW 19 24 10 13 987.2 - -
22/10:30am -17.7 -25.9 -20.3 80 - SSE 24 32 13 17 987.2 - -
22/10:00am -17.9 -26.4 -20.3 81 - S 26 30 14 16 987.3 987.8 -
22/09:30am -18.1 -26.3 -20.5 81 - S 24 26 13 14 986.9 - -

Other Formats:

Comma delimited format used in spreadsheet applications
http://www.bom.gov.au/fwo/IDT60803/IDT60803.89611.axf

JavaScript Object Notation format (JSON) in row-major order
http://www.bom.gov.au/fwo/IDT60803/IDT60803.89611.json